• Join FlightAware (Why Join?)
  • Login
  • US Flag 
 
01:46PM EST


 

Airport Tracker/Info


-or-


 

Live Flight TrackerFlight Track Log ✈ SWA3924 ✈ 30-Apr-2013 ✈ KEYW - KMCO

Flight Track Log - Related Links

Times and Time Zones

All times are in EDT time to prevent confusion due to time zone crossing. See the SWA3924 flight status page for this flight to view local times or setup timezone preferences in your user account.

Time Position Orientation Groundspeed Altitude Reporting Facility
EDT Latitude Longitude Course Direction KTS MPH feet Rate Location/Type
11:33AM 24.6356 -81.7364 11° North 260 299 4,600  Level Miami Center
11:34AM 24.7064 -81.7417 356° North 295 339 7,700 3,060 Climbing Miami Center
11:35AM 24.7897 -81.7472 357° North 307 353 10,800 3,120 Climbing Miami Center
11:36AM 24.8614 -81.6631 47° Northeast 308 354 14,000 3,240 Climbing Miami Center
11:37AM 24.9369 -81.5836 44° Northeast 340 391 17,300 3,120 Climbing Miami Center
11:38AM 25.0590 -81.9500 North  Level FlightAware Approximate
11:38AM 25.0456 -81.5831 360° North 345 397 20,300  Level Miami Center
11:39AM 25.1527 -81.9346 11° North  Level FlightAware Approximate
11:39AM 25.1517 -81.5942 355° North 360 414 22,000  Level Miami Center
11:40AM 25.2597 -81.6097 353° North 378 435 22,000  Level Miami Center
11:41AM 25.3700 -81.6256 353° North 388 447 22,000  Level Miami Center
11:42AM 25.4761 -81.6389 354° North 388 447 22,000  Level Miami Center
11:43AM 25.5883 -81.6547 353° North 388 447 22,000  Level Miami Center
11:44AM 25.6964 -81.6683 354° North 388 447 22,000  Level Miami Center
11:45AM 25.8025 -81.6794 355° North 382 440 22,000  Level Miami Center
11:46AM 25.9128 -81.6933 354° North 388 447 22,000  Level Miami Center
11:47AM 26.0208 -81.7069 354° North 393 452 22,000  Level Miami Center
11:48AM 26.1311 -81.7228 353° North 387 445 22,000  Level Miami Center
11:49AM 26.2392 -81.7367 353° North 387 445 22,000  Level Miami Center
11:50AM 26.3472 -81.7525 353° North 387 445 22,000  Level Miami Center
11:51AM 26.4558 -81.7525 360° North 387 445 22,000  Level Miami Center
11:52AM 26.5747 -81.7550 359° North 387 445 22,000  Level Miami Center
11:53AM 26.6875 -81.7506 North 386 444 22,000  Level Miami Center
11:54AM 26.7983 -81.7481 North 386 444 22,000  Level Miami Center
11:55AM 26.9072 -81.7386 North 386 444 22,000  Level Miami Center
11:56AM 27.0181 -81.7294 North 386 444 22,000 -300 Level Miami Center
11:57AM 27.1164 -81.7264 North 392 451 21,500 -900 Descending Miami Center
11:58AM 27.2331 -81.7267 360° North 382 440 20,300 -780 Descending Miami Center
11:59AM 27.3394 -81.7311 358° North 382 440 20,000 -180 Descending Miami Center
12:00PM 27.4458 -81.7333 359° North 382 440 20,000 -120 Level Miami Center
12:01PM 27.5394 -81.7397 357° North 382 440 19,800 -600 Descending Miami Center
12:02PM 27.6458 -81.7419 359° North 377 434 18,800 -1,740 Descending Miami Center
12:04PM 27.8500 -81.7500 358° North 360 414 15,000 -2,040 Descending Orlando TRACON
12:05PM 27.9333 -81.7500 360° North 339 390 13,100 -1,320 Descending Orlando TRACON
12:06PM 28.0333 -81.7500 360° North 327 376 12,300 -900 Descending Orlando TRACON
12:07PM 28.1167 -81.6833 35° Northeast 330 380 11,300 -1,080 Descending Orlando TRACON
12:08PM 28.1833 -81.6167 41° Northeast 325 374 10,200 -1,080 Descending Orlando TRACON
12:09PM 28.2333 -81.5500 50° Northeast 308 354 9,200 -600 Descending Orlando TRACON
12:10PM 28.2833 -81.4833 50° Northeast 294 338 9,000 -120 Descending Orlando TRACON
12:11PM 28.3500 -81.4167 41° Northeast 238 274 9,000 -300 Level Orlando TRACON
12:12PM 28.4167 -81.4167 360° North 242 278 8,400 -960 Descending Orlando TRACON
12:13PM 28.4833 -81.4167 360° North 240 276 7,200 -1,320 Descending Orlando TRACON
12:14PM 28.5500 -81.4167 360° North 231 266 5,900 -1,140 Descending Orlando TRACON
12:15PM 28.6167 -81.4167 360° North 234 269 5,000 -600 Descending Orlando TRACON
12:16PM 28.6333 -81.3500 74° East 239 275 4,700 -660 Descending Orlando TRACON
12:17PM 28.6000 -81.3000 127° Southeast 202 232 3,700 -1,020 Descending Orlando TRACON
12:18PM 28.5667 -81.2833 156° South 161 185 2,700 -1,080 Descending Orlando TRACON
12:19PM 28.5167 -81.2833 180° South 162 186 1,700 -1,140 Descending Orlando TRACON